Time;durP1;ratioP1;P1;durP2;ratioP2;P2;SDS_P1;SDS_P2;PMS_P1;PMS_P2;Temp;Humidity;BMP_temperature;BMP_pressure;BME280_temperature;BME280_humidity;BME280_pressure;Samples;Min_cycle;Max_cycle;Signal;HPM_P1;HPM_P2
2023/06/17 00:00:04;;;;;;;;;;;;;;;6.88;100.00;99619.56;6186104;23;19919;-81
2023/06/17 00:02:31;;;;;;;;;;;;;;;6.90;100.00;99627.41;6186115;23;19943;-81
2023/06/17 00:04:56;;;;;;;;;;;;;;;6.90;100.00;99625.63;6158963;23;19912;-82
2023/06/17 00:07:22;;;;;;;;;;;;;;;6.91;100.00;99621.25;6184321;23;19991;-81
2023/06/17 00:09:47;;;;;;;;;;;;;;;6.86;100.00;99626.66;6185582;23;19912;-82
2023/06/17 04:54:49;;;;;;;;;;;;;;;6.41;100.00;99576.19;6185447;23;19927;-83
2023/06/17 04:57:14;;;;;;;;;;;;;;;6.42;100.00;99584.06;6159545;23;19924;-83
2023/06/17 04:59:39;;;;;;;;;;;;;;;6.43;100.00;99584.91;6159259;23;19924;-83
2023/06/17 05:02:04;;;;;;;;;;;;;;;6.38;100.00;99581.56;6159492;23;19917;-83
2023/06/17 05:04:30;;;;;;;;;;;;;;;6.40;100.00;99585.88;6150223;23;20201;-82
2023/06/17 05:06:55;;;;;;;;;;;;;;;6.41;100.00;99589.38;6148665;23;19922;-83
2023/06/17 05:09:22;;;;;;;;;;;;;;;6.43;100.00;99587.53;6176403;23;19908;-83
2023/06/17 05:20:07;;;;;;;;;;;;;;;6.50;100.00;99597.84;6156469;23;19951;-86
2023/06/17 05:22:33;;;;;;;;;;;;;;;6.56;100.00;99602.09;6129560;23;19948;-82
2023/06/17 05:24:58;;;;;;;;;;;;;;;6.48;100.00;99593.56;6154496;23;19913;-82
2023/06/17 05:27:24;;;;;;;;;;;;;;;6.43;100.00;99596.31;6155757;23;19964;-82
2023/06/17 05:29:50;;;;;;;;;;;;;;;6.40;100.00;99606.06;6128983;23;19916;-82
2023/06/17 05:32:15;;;;;;;;;;;;;;;6.36;100.00;99600.03;6154260;23;19912;-82
2023/06/17 05:34:40;;;;;;;;;;;;;;;6.34;100.00;99591.31;6155629;23;20047;-82
2023/06/17 05:37:05;;;;;;;;;;;;;;;6.45;100.00;99591.00;6155653;23;19917;-82
2023/06/17 05:39:31;;;;;;;;;;;;;;;6.44;100.00;99597.19;6153968;23;19916;-82
2023/06/17 05:41:56;;;;;;;;;;;;;;;6.44;100.00;99597.19;6155840;23;19913;-82
2023/06/17 05:44:21;;;;;;;;;;;;;;;6.44;100.00;99598.03;6155588;23;20248;-82
2023/06/17 05:46:46;;;;;;;;;;;;;;;6.46;100.00;99606.75;6153790;23;19976;-83
2023/06/17 05:49:12;;;;;;;;;;;;;;;6.48;100.00;99604.94;6129394;23;19919;-82
2023/06/17 05:51:37;;;;;;;;;;;;;;;6.49;100.00;99605.78;6155504;23;19922;-82
2023/06/17 05:54:02;;;;;;;;;;;;;;;6.53;100.00;99603.03;6155307;23;20273;-82
2023/06/17 05:56:27;;;;;;;;;;;;;;;6.50;100.00;99604.91;6129428;23;20225;-82
2023/06/17 05:58:53;;;;;;;;;;;;;;;6.51;100.00;99609.22;6155259;23;20276;-82
2023/06/17 06:01:18;;;;;;;;;;;;;;;6.48;100.00;99609.34;6155254;23;19913;-82
2023/06/17 06:03:43;;;;;;;;;;;;;;;6.45;100.00;99604.16;6153685;23;19913;-82
2023/06/17 06:06:09;;;;;;;;;;;;;;;6.51;100.00;99607.47;6146072;23;19947;-82
2023/06/17 06:08:34;;;;;;;;;;;;;;;6.53;100.00;99607.44;6129222;23;19966;-82
2023/06/17 06:10:59;;;;;;;;;;;;;;;6.50;100.00;99597.00;6120219;23;20262;-84
2023/06/17 06:13:25;;;;;;;;;;;;;;;6.55;100.00;99610.88;6120355;23;19912;-83
2023/06/17 06:15:50;;;;;;;;;;;;;;;6.53;100.00;99613.56;6155153;23;19963;-83
2023/06/17 06:18:15;;;;;;;;;;;;;;;6.54;100.00;99614.41;6156747;23;19959;-85
2023/06/17 06:20:41;;;;;;;;;;;;;;;6.52;100.00;99617.09;6158633;23;20363;-82
2023/06/17 06:23:06;;;;;;;;;;;;;;;6.51;100.00;99609.22;6184857;23;19916;-84
2023/06/17 06:25:31;;;;;;;;;;;;;;;6.52;100.00;99617.09;6185282;23;20311;-83
2023/06/17 06:27:58;;;;;;;;;;;;;;;6.54;100.00;99607.41;6184984;23;19939;-83
2023/06/17 06:30:24;;;;;;;;;;;;;;;6.54;100.00;99614.41;6184839;23;19919;-83
2023/06/17 06:32:49;;;;;;;;;;;;;;;6.55;100.00;99613.50;6183328;23;20208;-83
2023/06/17 06:35:14;;;;;;;;;;;;;;;6.58;100.00;99609.94;6158475;23;19923;-82
2023/06/17 06:37:39;;;;;;;;;;;;;;;6.55;100.00;99616.16;6184867;23;20236;-82
2023/06/17 06:40:05;;;;;;;;;;;;;;;6.55;100.00;99611.72;6158184;23;19916;-86
2023/06/17 06:42:30;;;;;;;;;;;;;;;6.59;100.00;99612.53;6149389;23;19916;-87
2023/06/17 06:44:56;;;;;;;;;;;;;;;6.59;100.00;99617.78;6158204;23;19939;-87
2023/06/17 06:47:21;;;;;;;;;;;;;;;6.59;100.00;99615.16;6156610;23;19916;-86
2023/06/17 06:49:47;;;;;;;;;;;;;;;6.58;100.00;99618.69;6184719;23;19923;-87
2023/06/17 06:52:12;;;;;;;;;;;;;;;6.58;100.00;99616.06;6158427;23;19962;-86
2023/06/17 06:54:37;;;;;;;;;;;;;;;6.60;100.00;99619.50;6158394;23;19912;-86
2023/06/17 06:57:02;;;;;;;;;;;;;;;6.63;100.00;99622.03;6149260;23;20407;-86
2023/06/17 06:59:28;;;;;;;;;;;;;;;6.61;100.00;99621.25;6175484;23;19913;-84
2023/06/17 07:01:53;;;;;;;;;;;;;;;6.64;100.00;99615.88;6183067;23;19994;-83
2023/06/17 07:04:20;;;;;;;;;;;;;;;6.59;100.00;99615.16;6184739;23;19931;-83
2023/06/17 07:06:45;;;;;;;;;;;;;;;6.61;100.00;99617.75;6184639;23;19916;-85
2023/06/17 07:09:10;;;;;;;;;;;;;;;6.62;100.00;99617.72;6158450;23;19963;-84
2023/06/17 07:11:36;;;;;;;;;;;;;;;6.61;100.00;99621.25;6158392;23;19919;-85
2023/06/17 07:14:01;;;;;;;;;;;;;;;6.63;100.00;99615.94;6158288;23;19920;-84
2023/06/17 07:16:26;;;;;;;;;;;;;;;6.63;100.00;99622.03;6184543;23;19923;-84
2023/06/17 07:18:51;;;;;;;;;;;;;;;6.60;100.00;99622.13;6182956;23;19924;-85
2023/06/17 07:21:17;;;;;;;;;;;;;;;6.59;100.00;99617.78;6184693;23;19994;-84
2023/06/17 07:23:42;;;;;;;;;;;;;;;6.63;100.00;99618.56;6184711;23;19919;-84
2023/06/17 07:26:07;;;;;;;;;;;;;;;6.60;100.00;99624.75;6184547;23;19912;-85
2023/06/17 07:28:33;;;;;;;;;;;;;;;6.61;100.00;99615.97;6158678;23;19913;-84
2023/06/17 07:30:59;;;;;;;;;;;;;;;6.63;100.00;99623.81;6184425;23;20372;-85
2023/06/17 07:33:25;;;;;;;;;;;;;;;6.61;100.00;99617.75;6183140;23;19940;-84
2023/06/17 07:35:51;;;;;;;;;;;;;;;6.62;100.00;99617.72;6184572;23;19912;-84
2023/06/17 07:38:16;;;;;;;;;;;;;;;6.62;100.00;99616.81;6184543;23;20622;-85
2023/06/17 07:40:41;;;;;;;;;;;;;;;6.61;100.00;99623.88;6184777;23;19913;-84
2023/06/17 07:43:07;;;;;;;;;;;;;;;6.61;100.00;99615.97;6184468;23;20004;-84
2023/06/17 07:45:32;;;;;;;;;;;;;;;6.59;100.00;99612.53;6184505;23;19918;-84
2023/06/17 07:47:57;;;;;;;;;;;;;;;6.67;100.00;99614.91;6156556;23;19920;-84
2023/06/17 07:50:23;;;;;;;;;;;;;;;6.68;100.00;99619.28;6184412;23;20363;-84
2023/06/17 07:52:50;;;;;;;;;;;;;;;6.64;100.00;99610.63;6184902;23;20355;-84
2023/06/17 07:55:15;;;;;;;;;;;;;;;6.64;100.00;99613.25;6159997;23;20317;-84
2023/06/17 07:57:40;;;;;;;;;;;;;;;6.64;100.00;99610.63;6185576;23;19923;-85
2023/06/17 08:00:13;;;;;;;;;;;;;;;6.67;100.00;99610.53;6159714;23;19935;-83
2023/06/17 08:02:39;;;;;;;;;;;;;;;6.69;100.00;99607.84;6178583;23;19919;-84
2023/06/17 08:05:04;;;;;;;;;;;;;;;6.69;100.00;99598.19;6159728;23;19970;-84
2023/06/17 08:07:30;;;;;;;;;;;;;;;6.68;100.00;99601.69;6150964;23;19916;-84
2023/06/17 08:09:55;;;;;;;;;;;;;;;6.70;100.00;99596.38;6159719;23;20376;-82
2023/06/17 08:12:20;;;;;;;;;;;;;;;6.70;100.00;99591.13;6186101;23;19917;-84
2023/06/17 08:14:45;;;;;;;;;;;;;;;6.69;100.00;99587.63;6159582;23;19944;-82
2023/06/17 08:17:11;;;;;;;;;;;;;;;6.67;100.00;99583.31;6158141;23;19916;-83
2023/06/17 08:19:36;;;;;;;;;;;;;;;6.65;100.00;99585.13;6159417;23;19920;-82
2023/06/17 08:22:01;;;;;;;;;;;;;;;6.72;100.00;99582.28;6159686;23;20214;-84
2023/06/17 08:24:26;;;;;;;;;;;;;;;6.67;100.00;99584.19;6159731;23;19916;-87
2023/06/17 08:26:52;;;;;;;;;;;;;;;6.69;100.00;99585.00;6185942;23;19952;-84
2023/06/17 08:29:18;;;;;;;;;;;;;;;6.65;100.00;99580.75;6185856;23;20339;-84
2023/06/17 08:31:45;;;;;;;;;;;;;;;6.66;100.00;99577.19;6184308;23;19920;-84
2023/06/17 08:34:11;;;;;;;;;;;;;;;6.67;100.00;99578.03;6186303;23;20318;-84
2023/06/17 08:36:39;;;;;;;;;;;;;;;6.68;100.00;99577.16;6159628;23;19961;-85
2023/06/17 08:39:04;;;;;;;;;;;;;;;6.69;100.00;99578.88;6151607;23;19920;-83
2023/06/17 08:41:30;;;;;;;;;;;;;;;6.68;100.00;99575.38;6185921;23;19913;-84
2023/06/17 08:44:00;;;;;;;;;;;;;;;6.66;100.00;99566.66;6159258;23;19912;-82
2023/06/17 08:46:26;;;;;;;;;;;;;;;6.68;100.00;99563.97;6185633;23;19923;-84
2023/06/17 08:48:52;;;;;;;;;;;;;;;6.68;100.00;99563.97;6158145;23;19912;-83
2023/06/17 08:51:18;;;;;;;;;;;;;;;6.67;100.00;99557.88;6159186;23;19920;-84
2023/06/17 08:53:44;;;;;;;;;;;;;;;6.68;100.00;99553.47;6150527;23;20021;-84
2023/06/17 08:56:09;;;;;;;;;;;;;;;6.67;100.00;99557.88;6185715;23;19912;-84
2023/06/17 08:58:37;;;;;;;;;;;;;;;6.68;100.00;99559.56;6159348;23;19958;-84
2023/06/17 09:01:02;;;;;;;;;;;;;;;6.67;100.00;99560.50;6159453;23;19955;-83
2023/06/17 09:03:28;;;;;;;;;;;;;;;6.67;100.00;99546.44;6157694;23;20279;-84
2023/06/17 09:05:53;;;;;;;;;;;;;;;6.70;100.00;99547.25;6159385;23;20438;-83
2023/06/17 09:08:18;;;;;;;;;;;;;;;6.69;100.00;99555.19;6159203;23;20247;-84
2023/06/17 09:10:43;;;;;;;;;;;;;;;6.70;100.00;99551.63;6159327;23;20222;-84
2023/06/17 09:13:09;;;;;;;;;;;;;;;6.71;100.00;99553.38;6159101;23;20343;-83
2023/06/17 09:15:38;;;;;;;;;;;;;;;6.70;100.00;99555.16;6159119;23;20003;-83
2023/06/17 09:18:03;;;;;;;;;;;;;;;6.67;100.00;99546.44;6156685;23;20319;-84
2023/06/17 09:20:31;;;;;;;;;;;;;;;6.67;100.00;99547.34;6158164;23;19919;-83
2023/06/17 09:22:57;;;;;;;;;;;;;;;6.71;100.00;99548.09;6158544;23;20351;-84
2023/06/17 09:25:23;;;;;;;;;;;;;;;6.68;100.00;99538.50;6158800;23;19919;-83
2023/06/17 09:27:49;;;;;;;;;;;;;;;6.72;100.00;99540.16;6185322;23;19919;-83
2023/06/17 09:30:14;;;;;;;;;;;;;;;6.73;100.00;99541.00;6185247;23;19919;-82
2023/06/17 09:32:42;;;;;;;;;;;;;;;6.72;100.00;99542.78;6184074;23;19944;-83
2023/06/17 09:35:14;;;;;;;;;;;;;;;6.68;100.00;99538.50;6184421;23;20248;-88
2023/06/17 09:37:40;;;;;;;;;;;;;;;6.70;100.00;99535.81;6184813;23;19917;-84
2023/06/17 09:40:06;;;;;;;;;;;;;;;6.76;100.00;99540.91;6184628;23;19939;-82
2023/06/17 09:42:33;;;;;;;;;;;;;;;6.69;100.00;99534.13;6184530;23;19912;-85
2023/06/17 09:45:03;;;;;;;;;;;;;;;6.75;100.00;99540.97;6184404;23;19919;-84
2023/06/17 09:47:34;;;;;;;;;;;;;;;6.71;100.00;99543.69;6156853;23;19991;-83
2023/06/17 09:50:06;;;;;;;;;;;;;;;6.66;100.00;99542.97;6185178;23;20331;-85
2023/06/17 09:52:32;;;;;;;;;;;;;;;6.69;100.00;99534.97;6158742;23;19912;-87
2023/06/17 09:54:58;;;;;;;;;;;;;;;6.71;100.00;99537.56;6157847;23;19920;-83
2023/06/17 09:57:26;;;;;;;;;;;;;;;6.69;100.00;99537.63;6158939;23;19986;-85
2023/06/17 09:59:54;;;;;;;;;;;;;;;6.72;100.00;99532.25;6150178;23;20347;-83
2023/06/17 10:02:20;;;;;;;;;;;;;;;6.76;100.00;99537.44;6156729;23;19919;-84
2023/06/17 10:04:45;;;;;;;;;;;;;;;6.72;100.00;99529.63;6158471;23;19935;-82
2023/06/17 10:07:10;;;;;;;;;;;;;;;6.71;100.00;99530.50;6156585;23;19916;-85
2023/06/17 10:09:37;;;;;;;;;;;;;;;6.76;100.00;99533.00;6158005;23;19908;-86
2023/06/17 10:12:04;;;;;;;;;;;;;;;6.81;100.00;99532.88;6147133;23;19966;-83
2023/06/17 10:14:33;;;;;;;;;;;;;;;6.73;100.00;99528.72;6158721;23;19917;-85
2023/06/17 10:17:01;;;;;;;;;;;;;;;6.76;100.00;99529.53;6156809;23;19920;-84
2023/06/17 10:19:28;;;;;;;;;;;;;;;6.69;100.00;99529.72;6149609;23;19924;-86
2023/06/17 10:21:55;;;;;;;;;;;;;;;6.69;100.00;99527.06;6158419;23;19912;-82
2023/06/17 10:24:21;;;;;;;;;;;;;;;6.66;100.00;99519.28;6158374;23;19916;-85
2023/06/17 10:26:50;;;;;;;;;;;;;;;6.70;100.00;99523.53;6158694;23;19944;-86
2023/06/17 10:29:16;;;;;;;;;;;;;;;6.68;100.00;99530.59;6158206;23;19919;-83
2023/06/17 10:31:42;;;;;;;;;;;;;;;6.71;100.00;99517.34;6156911;23;19913;-82
2023/06/17 10:34:13;;;;;;;;;;;;;;;6.70;100.00;99528.81;6158475;23;19923;-83
2023/06/17 10:36:38;;;;;;;;;;;;;;;6.70;100.00;99520.91;6158323;23;20140;-83
2023/06/17 10:39:10;;;;;;;;;;;;;;;6.69;100.00;99519.19;6158396;23;20026;-83
2023/06/17 10:41:38;;;;;;;;;;;;;;;6.74;100.00;99521.66;6159378;23;19920;-89
2023/06/17 10:44:23;;;;;;;;;;;;;;;6.77;100.00;99518.94;6159277;23;19991;-83
2023/06/17 10:46:51;;;;;;;;;;;;;;;6.80;100.00;99518.84;6156764;23;20299;-83
2023/06/17 10:49:17;;;;;;;;;;;;;;;6.78;100.00;99514.53;6184731;23;19912;-85
2023/06/17 10:51:46;;;;;;;;;;;;;;;6.77;100.00;99512.81;6158366;23;19922;-85
2023/06/17 10:54:11;;;;;;;;;;;;;;;6.78;100.00;99511.91;6184733;23;19962;-83
2023/06/17 10:56:50;;;;;;;;;;;;;;;6.80;100.00;99507.47;6184563;23;19921;-84
2023/06/17 10:59:22;;;;;;;;;;;;;;;6.79;100.00;99508.38;6158662;23;19919;-84
2023/06/17 11:01:47;;;;;;;;;;;;;;;6.78;100.00;99506.63;6156775;23;19920;-85
2023/06/17 11:04:14;;;;;;;;;;;;;;;6.78;100.00;99501.38;6184700;23;19940;-84
2023/06/17 11:06:42;;;;;;;;;;;;;;;6.76;100.00;99504.03;6176463;23;19920;-84
2023/06/17 11:09:08;;;;;;;;;;;;;;;6.77;100.00;99502.28;6184668;23;19939;-85
2023/06/17 11:11:33;;;;;;;;;;;;;;;6.71;100.00;99498.06;6184669;23;20332;-85
2023/06/17 11:13:59;;;;;;;;;;;;;;;6.78;100.00;99493.47;6175307;23;19912;-85
2023/06/17 11:16:24;;;;;;;;;;;;;;;6.77;100.00;99497.88;6175123;23;20384;-85
2023/06/17 11:18:49;;;;;;;;;;;;;;;6.82;100.00;99487.19;6156668;23;19924;-84
2023/06/17 11:21:15;;;;;;;;;;;;;;;6.80;100.00;99489.03;6184587;23;19912;-86
2023/06/17 11:23:42;;;;;;;;;;;;;;;6.83;100.00;99483.63;6175327;23;19999;-85
2023/06/17 11:26:08;;;;;;;;;;;;;;;6.80;100.00;99489.03;6158229;23;20363;-85
2023/06/17 11:28:36;;;;;;;;;;;;;;;6.77;100.00;99487.34;6159193;23;19944;-84
2023/06/17 11:31:02;;;;;;;;;;;;;;;6.73;100.00;99478.69;6159904;23;20205;-84
2023/06/17 11:33:32;;;;;;;;;;;;;;;6.75;100.00;99483.91;6185243;23;19920;-84
2023/06/17 11:35:57;;;;;;;;;;;;;;;6.75;100.00;99483.91;6186534;23;19920;-85
2023/06/17 11:38:24;;;;;;;;;;;;;;;6.77;100.00;99476.81;6186497;23;19919;-85
2023/06/17 11:40:57;;;;;;;;;;;;;;;6.75;100.00;99481.28;6160001;23;19912;-85
2023/06/17 11:43:26;;;;;;;;;;;;;;;6.78;100.00;99472.41;6186337;23;19999;-85
2023/06/17 11:45:56;;;;;;;;;;;;;;;6.77;100.00;99468.06;6152726;23;19990;-85
2023/06/17 11:48:26;;;;;;;;;;;;;;;6.77;100.00;99471.53;6158441;23;20008;-86
2023/06/17 11:50:53;;;;;;;;;;;;;;;6.80;100.00;99466.19;6160086;23;19976;-85
2023/06/17 11:53:27;;;;;;;;;;;;;;;6.78;100.00;99461.88;6151147;23;20340;-85
2023/06/17 11:55:52;;;;;;;;;;;;;;;6.76;100.00;99461.91;6186223;23;19908;-85
2023/06/17 11:58:18;;;;;;;;;;;;;;;6.77;100.00;99452.25;6160457;23;19916;-84
2023/06/17 12:00:44;;;;;;;;;;;;;;;6.77;100.00;99458.38;6160257;23;20002;-86
2023/06/17 12:03:09;;;;;;;;;;;;;;;6.76;100.00;99446.09;6184777;23;19916;-86
2023/06/17 12:05:36;;;;;;;;;;;;;;;6.76;100.00;99448.75;6160349;23;19986;-86
2023/06/17 12:08:01;;;;;;;;;;;;;;;6.79;100.00;99451.28;6186147;23;19913;-85
2023/06/17 12:10:27;;;;;;;;;;;;;;;6.75;100.00;99447.03;6186141;23;19920;-87
2023/06/17 12:12:58;;;;;;;;;;;;;;;6.79;100.00;99450.44;6159907;23;19913;-86
2023/06/17 12:15:30;;;;;;;;;;;;;;;6.75;100.00;99439.13;6159793;23;19947;-86
2023/06/17 12:18:09;;;;;;;;;;;;;;;6.79;100.00;99434.63;6184636;23;20242;-88
2023/06/17 12:20:35;;;;;;;;;;;;;;;6.80;100.00;99436.38;6159938;23;19912;-85
2023/06/17 12:23:00;;;;;;;;;;;;;;;6.77;100.00;99423.28;6185959;23;19912;-82
2023/06/17 12:25:25;;;;;;;;;;;;;;;6.77;100.00;99428.56;6160781;23;20069;-83
2023/06/17 12:27:51;;;;;;;;;;;;;;;6.81;100.00;99424.91;6159623;23;19952;-85
2023/06/17 12:30:18;;;;;;;;;;;;;;;6.80;100.00;99426.69;6159594;23;19916;-87
2023/06/17 12:32:43;;;;;;;;;;;;;;;6.81;100.00;99422.25;6184512;23;19916;-84
2023/06/17 12:35:12;;;;;;;;;;;;;;;6.88;100.00;99423.78;6158475;23;19916;-82
2023/06/17 12:37:39;;;;;;;;;;;;;;;6.82;100.00;99424.00;6157718;23;19966;-85
2023/06/17 12:40:06;;;;;;;;;;;;;;;6.84;100.00;99422.16;6158712;23;19916;-85
2023/06/17 12:42:31;;;;;;;;;;;;;;;6.82;100.00;99416.09;6158527;23;19963;-84
2023/06/17 12:44:57;;;;;;;;;;;;;;;6.81;100.00;99409.09;6159248;23;19916;-84
2023/06/17 12:47:23;;;;;;;;;;;;;;;6.82;100.00;99424.00;6175020;23;19939;-85
2023/06/17 12:49:49;;;;;;;;;;;;;;;6.82;100.00;99424.00;6159408;23;19943;-87
2023/06/17 12:52:14;;;;;;;;;;;;;;;6.83;100.00;99410.78;6159440;23;19920;-85
2023/06/17 12:54:41;;;;;;;;;;;;;;;6.80;100.00;99421.41;6159625;23;19916;-91
2023/06/17 12:57:07;;;;;;;;;;;;;;;6.77;100.00;99421.50;6159468;23;19991;-85
2023/06/17 12:59:33;;;;;;;;;;;;;;;6.77;100.00;99418.03;6185835;23;20315;-86
2023/06/17 13:01:58;;;;;;;;;;;;;;;6.76;100.00;99413.66;6184277;23;19923;-85
2023/06/17 13:04:24;;;;;;;;;;;;;;;6.78;100.00;99409.19;6159570;23;20317;-86
2023/06/17 13:06:49;;;;;;;;;;;;;;;6.76;100.00;99403.97;6150238;23;19967;-84
2023/06/17 13:09:15;;;;;;;;;;;;;;;6.80;100.00;99416.16;6185661;23;19917;-85
2023/06/17 13:11:42;;;;;;;;;;;;;;;6.83;100.00;99409.91;6185674;23;20360;-84
2023/06/17 13:14:07;;;;;;;;;;;;;;;6.75;100.00;99411.94;6159342;23;19944;-85
2023/06/17 13:16:33;;;;;;;;;;;;;;;6.75;100.00;99398.75;6158167;23;19923;-83
2023/06/17 13:18:58;;;;;;;;;;;;;;;15.33;100.00;99367.63;6158335;23;19916;-84
2023/06/17 13:21:24;;;;;;;;;;;;;;;10.82;100.00;99374.00;6159096;23;19959;-81
2023/06/17 13:23:49;;;;;;;;;;;;;;;8.28;100.00;99392.31;6150316;23;19996;-84
2023/06/17 13:26:16;;;;;;;;;;;;;;;7.72;100.00;99396.22;6176457;23;20354;-82
2023/06/17 13:28:41;;;;;;;;;;;;;;;7.52;100.00;99393.47;6185446;23;19912;-81
2023/06/17 13:31:06;;;;;;;;;;;;;;;7.33;100.00;99395.91;6185813;23;20287;-83
2023/06/17 13:33:32;;;;;;;;;;;;;;;7.26;100.00;99388.22;6183842;23;19916;-82
2023/06/17 13:35:57;;;;;;;;;;;;;;;7.23;100.00;99382.19;6185261;23;19926;-82
2023/06/17 13:38:23;;;;;;;;;;;;;;;7.20;100.00;99377.03;6159061;23;20317;-83
2023/06/17 13:40:48;;;;;;;;;;;;;;;7.14;100.00;99383.38;6176227;23;19913;-82
2023/06/17 13:43:13;;;;;;;;;;;;;;;7.06;100.00;99386.28;6185277;23;19947;-82
2023/06/17 13:45:39;;;;;;;;;;;;;;;7.06;100.00;99385.41;6185258;23;19912;-82
2023/06/17 13:48:04;;;;;;;;;;;;;;;7.01;100.00;99375.03;6183795;23;20347;-81
2023/06/17 13:50:30;;;;;;;;;;;;;;;6.93;100.00;99378.88;6158426;23;19912;-82
2023/06/17 13:52:55;;;;;;;;;;;;;;;6.94;100.00;99375.28;6158631;23;19932;-81
2023/06/17 13:55:21;;;;;;;;;;;;;;;6.89;100.00;99368.44;6175849;23;19923;-81
2023/06/17 13:57:46;;;;;;;;;;;;;;;6.90;100.00;99374.56;6185161;23;19912;-82
2023/06/17 14:00:12;;;;;;;;;;;;;;;6.91;100.00;99371.00;6149780;23;19912;-83
2023/06/17 14:02:37;;;;;;;;;;;;;;;6.86;100.00;99372.91;6157230;23;20344;-82
2023/06/17 14:05:03;;;;;;;;;;;;;;;6.92;100.00;99372.72;6175814;23;19913;-81
2023/06/17 14:07:28;;;;;;;;;;;;;;;6.88;100.00;99365.84;6184859;23;19924;-83
2023/06/17 14:09:54;;;;;;;;;;;;;;;6.88;100.00;99376.38;6185034;23;19916;-82
2023/06/17 14:12:20;;;;;;;;;;;;;;;6.88;100.00;99371.13;6158657;23;20321;-82
2023/06/17 14:14:46;;;;;;;;;;;;;;;6.83;100.00;99368.63;6158767;23;19918;-82
2023/06/17 14:17:11;;;;;;;;;;;;;;;6.86;100.00;99376.44;6183413;23;19955;-81
2023/06/17 14:19:36;;;;;;;;;;;;;;;6.83;100.00;99366.00;6158460;23;19924;-82
2023/06/17 14:22:06;;;;;;;;;;;;;;;6.78;100.00;99359.16;6158426;23;19916;-82
2023/06/17 14:24:35;;;;;;;;;;;;;;;6.82;100.00;99358.16;6132834;23;19919;-82
2023/06/17 14:27:27;;;;;;;;;;;;;;;6.82;100.00;99355.53;6158438;23;19916;-81
2023/06/17 14:29:52;;;;;;;;;;;;;;;6.84;100.00;99354.53;6128207;23;19909;-82
2023/06/17 14:32:17;;;;;;;;;;;;;;;6.83;100.00;99359.84;6156940;23;20218;-82
2023/06/17 14:34:43;;;;;;;;;;;;;;;6.86;100.00;99359.75;6149301;23;20296;-83
2023/06/17 14:37:08;;;;;;;;;;;;;;;6.85;100.00;99364.16;6149405;23;19923;-81
2023/06/17 14:39:33;;;;;;;;;;;;;;;6.88;100.00;99366.69;6185164;23;19912;-82
2023/06/17 14:41:58;;;;;;;;;;;;;;;6.86;100.00;99359.75;6158401;23;19920;-81
2023/06/17 14:44:24;;;;;;;;;;;;;;;6.84;100.00;99348.41;6175435;23;19913;-82
2023/06/17 14:46:49;;;;;;;;;;;;;;;6.86;100.00;99352.72;6173773;23;19917;-82
2023/06/17 14:49:14;;;;;;;;;;;;;;;6.84;100.00;99349.28;6158312;23;19912;-82
2023/06/17 14:51:40;;;;;;;;;;;;;;;6.86;100.00;99342.19;6158492;23;19975;-82
2023/06/17 14:54:06;;;;;;;;;;;;;;;6.88;100.00;99355.31;6184778;23;19913;-81
2023/06/17 14:56:32;;;;;;;;;;;;;;;6.92;100.00;99356.91;6184697;23;20386;-82
2023/06/17 14:58:58;;;;;;;;;;;;;;;6.89;100.00;99349.13;6158340;23;20451;-82
2023/06/17 15:01:24;;;;;;;;;;;;;;;6.90;100.00;99348.22;6184575;23;19912;-82
2023/06/17 15:03:49;;;;;;;;;;;;;;;6.89;100.00;99346.47;6182997;23;19917;-82
2023/06/17 15:06:15;;;;;;;;;;;;;;;6.87;100.00;99343.06;6158234;23;19912;-87
2023/06/17 15:08:40;;;;;;;;;;;;;;;6.88;100.00;99350.06;6158375;23;20002;-82
2023/06/17 15:11:05;;;;;;;;;;;;;;;6.85;100.00;99356.28;6184603;23;19987;-83
2023/06/17 15:13:30;;;;;;;;;;;;;;;6.86;100.00;99347.47;6149518;23;19916;-82
2023/06/17 15:15:56;;;;;;;;;;;;;;;6.85;100.00;99348.38;6184913;23;20321;-82
2023/06/17 15:18:21;;;;;;;;;;;;;;;6.86;100.00;99349.22;6182624;23;20292;-82
2023/06/17 15:20:46;;;;;;;;;;;;;;;6.84;100.00;99349.28;6184513;23;20321;-82
2023/06/17 15:23:12;;;;;;;;;;;;;;;6.85;100.00;99344.88;6158158;23;19916;-82
2023/06/17 15:25:37;;;;;;;;;;;;;;;6.87;100.00;99341.25;6184506;23;19916;-82
2023/06/17 15:28:02;;;;;;;;;;;;;;;6.87;100.00;99332.50;6184528;23;19916;-82
2023/06/17 15:30:27;;;;;;;;;;;;;;;6.84;100.00;99338.75;6184547;23;19913;-82
2023/06/17 15:32:53;;;;;;;;;;;;;;;6.82;100.00;99340.56;6156366;23;19991;-81
2023/06/17 15:35:23;;;;;;;;;;;;;;;6.87;100.00;99337.78;6158179;23;19912;-82
2023/06/17 15:37:48;;;;;;;;;;;;;;;6.85;100.00;99334.34;6184501;23;20324;-82
2023/06/17 15:40:15;;;;;;;;;;;;;;;6.89;100.00;99343.84;6158036;23;19919;-84
2023/06/17 15:42:40;;;;;;;;;;;;;;;6.86;100.00;99338.69;6147307;23;20261;-82
2023/06/17 15:45:06;;;;;;;;;;;;;;;10.39;100.00;99339.00;6157947;23;19916;-80
2023/06/17 15:47:31;;;;;;;;;;;;;;;9.70;100.00;99319.31;6157025;23;19912;-83
2023/06/17 15:49:56;;;;;;;;;;;;;;;7.83;100.00;99332.50;6184428;23;19919;-84
2023/06/17 15:52:24;;;;;;;;;;;;;;;7.50;100.00;99329.38;6158146;23;19995;-83
2023/06/17 15:54:50;;;;;;;;;;;;;;;7.33;100.00;99332.66;6184450;23;19912;-83
2023/06/17 15:57:15;;;;;;;;;;;;;;;7.20;100.00;99325.19;6184342;23;20344;-83
2023/06/17 15:59:41;;;;;;;;;;;;;;;7.15;100.00;99329.78;6157909;23;19934;-83
2023/06/17 16:02:06;;;;;;;;;;;;;;;7.12;100.00;99334.31;6156245;23;19916;-82
2023/06/17 16:04:38;;;;;;;;;;;;;;;7.09;100.00;99327.34;6184333;23;19951;-83
2023/06/17 16:07:07;;;;;;;;;;;;;;;7.06;100.00;99332.72;6184235;23;19916;-83
2023/06/17 16:09:34;;;;;;;;;;;;;;;7.07;100.00;99334.47;6184408;23;20274;-82
2023/06/17 16:11:59;;;;;;;;;;;;;;;7.00;100.00;99328.53;6157834;23;20253;-86
2023/06/17 16:14:25;;;;;;;;;;;;;;;6.97;100.00;99326.00;6158776;23;19916;-82
2023/06/17 16:16:50;;;;;;;;;;;;;;;6.98;100.00;99329.50;6174991;23;20281;-86
2023/06/17 16:19:16;;;;;;;;;;;;;;;6.97;100.00;99323.38;6185907;23;19927;-82
2023/06/17 16:21:41;;;;;;;;;;;;;;;6.94;100.00;99318.22;6176680;23;19912;-84
2023/06/17 16:24:08;;;;;;;;;;;;;;;6.96;100.00;99316.41;6185959;23;19923;-82
2023/06/17 16:26:33;;;;;;;;;;;;;;;6.94;100.00;99319.97;6186112;23;20356;-85
2023/06/17 16:28:59;;;;;;;;;;;;;;;6.96;100.00;99319.03;6159524;23;19912;-84
2023/06/17 16:31:24;;;;;;;;;;;;;;;6.92;100.00;99314.78;6159955;23;19919;-84
2023/06/17 16:33:50;;;;;;;;;;;;;;;6.89;100.00;99315.75;6158046;23;20312;-82
2023/06/17 16:36:15;;;;;;;;;;;;;;;6.95;100.00;99316.44;6177000;23;19916;-82
2023/06/17 16:38:40;;;;;;;;;;;;;;;6.97;100.00;99312.81;6185992;23;19971;-84
2023/06/17 16:41:06;;;;;;;;;;;;;;;6.97;100.00;99320.72;6159351;23;19916;-85
2023/06/17 16:43:32;;;;;;;;;;;;;;;6.94;100.00;99317.34;6159350;23;19974;-82
2023/06/17 16:45:57;;;;;;;;;;;;;;;6.98;100.00;99318.97;6159383;23;19923;-85
2023/06/17 16:48:22;;;;;;;;;;;;;;;6.93;100.00;99321.78;6184243;23;19916;-83
2023/06/17 16:50:47;;;;;;;;;;;;;;;6.91;100.00;99315.72;6159481;23;20262;-82
2023/06/17 16:53:16;;;;;;;;;;;;;;;6.92;100.00;99309.50;6159193;23;19987;-83
2023/06/17 16:55:42;;;;;;;;;;;;;;;6.93;100.00;99315.66;6159514;23;19958;-82
2023/06/17 16:58:07;;;;;;;;;;;;;;;6.93;100.00;99313.00;6159670;23;19916;-83
2023/06/17 17:00:32;;;;;;;;;;;;;;;6.92;100.00;99314.78;6185417;23;19995;-83
2023/06/17 17:02:58;;;;;;;;;;;;;;;6.86;100.00;99310.59;6149047;23;20248;-85
2023/06/17 17:05:24;;;;;;;;;;;;;;;6.88;100.00;99314.03;6186073;23;19916;-84
2023/06/17 17:07:49;;;;;;;;;;;;;;;6.85;100.00;99315.91;6159132;23;19923;-84
2023/06/17 17:10:22;;;;;;;;;;;;;;;6.85;100.00;99313.28;6185491;23;19947;-86
2023/06/17 17:12:47;;;;;;;;;;;;;;;6.81;100.00;99311.66;6159283;23;19923;-84
2023/06/17 17:15:13;;;;;;;;;;;;;;;6.80;100.00;99310.81;6185681;23;19912;-83
2023/06/17 17:17:39;;;;;;;;;;;;;;;6.84;100.00;99314.19;6157470;23;19987;-83
2023/06/17 17:20:05;;;;;;;;;;;;;;;6.81;100.00;99316.91;6158870;23;19916;-83
2023/06/17 17:22:30;;;;;;;;;;;;;;;6.84;100.00;99312.41;6185514;23;19923;-83
2023/06/17 17:24:56;;;;;;;;;;;;;;;6.83;100.00;99310.69;6185917;23;19912;-83
2023/06/17 17:27:22;;;;;;;;;;;;;;;6.80;100.00;99312.59;6159005;23;20303;-83
2023/06/17 17:29:47;;;;;;;;;;;;;;;6.89;100.00;99314.88;6159051;23;19962;-84